Durango, Iowa
Current Conditions -  °F | °C
As of 9:53 PM on Friday 24 Oct 2014 (Local Time) from KDBQ Reporting Station
Haze Haze  
Wind Chill: 59°   Ceiling: 900
Heat Index: 59°   Visibility: 5mi
Dew Point: 57°   Wind: 9mph
Humidity: 93%   Direction: 240°WSW
Pressure: 29.94"   Gusts: NA
Location:  42.56°N, 90.78°W
Report Text: KDBQ 250253Z AUTO 24008KT 5SM BR OVC009 15/14 A2994 RMK AO2 CIG 006V013 SLP141 T01500139 53006
Loading
Personal Weather Stations






























Interactive Weather Map
Tropical Storm Tracking
New forecast layout! Learn more

10-Day Weather Forecast

Advertisements
Track Severe Weather on mobile